Time;durP1;ratioP1;P1;durP2;ratioP2;P2;SDS_P1;SDS_P2;PMS_P1;PMS_P2;Temp;Humidity;BMP_temperature;BMP_pressure;BME280_temperature;BME280_humidity;BME280_pressure;Samples;Min_cycle;Max_cycle;Signal;HPM_P1;HPM_P2
2023/05/08 00:01:30;;;;;;;6.70;3.80;;;;;;;13.51;34.41;101046.34;105298;1259;66491;-65
2023/05/08 00:03:57;;;;;;;6.70;3.70;;;;;;;13.49;34.45;101045.45;105387;1254;60433;-65
2023/05/08 00:06:26;;;;;;;9.10;3.90;;;;;;;13.46;34.43;101046.20;105234;1254;59978;-64
2023/05/08 00:08:54;;;;;;;8.40;3.80;;;;;;;13.43;34.56;101046.32;105148;1254;66381;-65
2023/05/08 00:11:21;;;;;;;9.80;3.40;;;;;;;13.39;34.36;101048.70;105730;1260;61006;-72
2023/05/08 00:13:48;;;;;;;7.20;3.70;;;;;;;13.38;34.40;101048.15;105413;1257;66538;-65
2023/05/08 00:16:15;;;;;;;7.30;3.50;;;;;;;13.34;34.49;101052.65;105816;1256;60924;-66
2023/05/08 00:18:43;;;;;;;7.50;3.30;;;;;;;13.33;34.56;101052.08;105450;1258;60414;-65
2023/05/08 00:21:10;;;;;;;5.80;2.90;;;;;;;13.30;34.37;101053.04;106194;1260;67683;-66
2023/05/08 00:23:37;;;;;;;7.90;3.40;;;;;;;13.27;34.37;101056.30;105615;1262;60796;-66
2023/05/08 00:26:04;;;;;;;6.20;3.10;;;;;;;13.25;34.49;101058.77;105133;1262;66519;-67
2023/05/08 00:28:31;;;;;;;4.80;2.90;;;;;;;13.24;34.59;101061.61;105711;1260;60549;-64
2023/05/08 00:31:01;;;;;;;5.70;2.70;;;;;;;13.24;34.59;101061.95;105977;1259;60310;-64
2023/05/08 00:33:28;;;;;;;5.00;2.90;;;;;;;13.25;34.64;101063.88;105421;1253;67748;-65
2023/05/08 00:36:02;;;;;;;4.70;2.50;;;;;;;13.23;34.61;101066.85;105472;1256;60681;-66
2023/05/08 00:38:33;;;;;;;5.70;2.60;;;;;;;13.19;34.71;101072.61;105359;1261;65515;-65
2023/05/08 00:41:00;;;;;;;5.30;2.60;;;;;;;13.16;34.75;101076.89;105455;1262;60528;-65
2023/05/08 00:43:28;;;;;;;5.00;2.70;;;;;;;13.13;34.82;101081.34;105433;1259;60796;-65
2023/05/08 00:45:55;;;;;;;4.90;2.50;;;;;;;13.10;34.98;101083.52;105456;1259;69997;-64
2023/05/08 00:48:22;;;;;;;5.20;2.60;;;;;;;13.08;35.22;101085.81;105167;1258;60449;-70
2023/05/08 00:50:51;;;;;;;8.40;2.70;;;;;;;13.06;35.35;101087.91;106249;1258;66772;-69
2023/05/08 00:53:18;;;;;;;7.30;2.70;;;;;;;13.03;35.29;101086.78;105421;1254;60561;-69
2023/05/08 00:55:45;;;;;;;8.50;2.90;;;;;;;13.00;35.29;101085.04;105226;1254;61008;-65
2023/05/08 00:58:12;;;;;;;10.80;3.00;;;;;;;12.97;35.31;101083.88;105205;1255;67217;-65
2023/05/08 01:00:40;;;;;;;6.90;2.90;;;;;;;12.94;35.27;101082.17;105451;1260;61188;-64
2023/05/08 01:03:08;;;;;;;4.70;2.70;;;;;;;12.92;35.41;101082.83;105291;1254;66437;-67
2023/05/08 01:05:35;;;;;;;4.50;2.70;;;;;;;12.90;35.54;101078.96;105622;1259;60456;-70
2023/05/08 01:08:02;;;;;;;6.10;2.80;;;;;;;12.91;35.61;101077.45;105458;1259;60635;-65
2023/05/08 01:10:52;;;;;;;3.90;2.60;;;;;;;12.90;35.63;101076.09;105501;1259;67658;-64
2023/05/08 01:13:36;;;;;;;4.10;2.50;;;;;;;12.88;35.77;101076.09;105296;1259;60540;-64
2023/05/08 01:16:12;;;;;;;5.10;2.50;;;;;;;12.83;35.81;101079.64;105597;1257;66464;-66
2023/05/08 01:18:43;;;;;;;4.20;2.60;;;;;;;12.80;35.70;101082.02;105422;1260;60513;-65
2023/05/08 01:21:20;;;;;;;6.40;2.60;;;;;;;12.76;35.65;101078.23;105171;1259;60559;-67
2023/05/08 01:24:11;;;;;;;11.50;2.70;;;;;;;12.74;35.52;101078.22;105363;1260;67726;-65
2023/05/08 01:27:07;;;;;;;3.10;2.00;;;;;;;12.71;35.49;101075.32;105461;1260;60564;-65
2023/05/08 01:30:06;;;;;;;5.40;2.20;;;;;;;12.67;35.41;101080.55;105414;1259;66571;-64
2023/05/08 01:32:38;;;;;;;5.60;2.50;;;;;;;12.65;35.54;101082.30;105713;1264;60460;-65
2023/05/08 01:35:31;;;;;;;4.40;2.30;;;;;;;12.64;35.55;101082.02;105320;1256;60386;-66
2023/05/08 01:38:02;;;;;;;5.60;2.40;;;;;;;12.61;35.41;101083.44;105565;1263;67836;-71
2023/05/08 01:40:44;;;;;;;5.70;2.40;;;;;;;12.58;35.67;101086.67;105302;1260;60513;-65
2023/05/08 01:44:05;;;;;;;7.30;2.40;;;;;;;12.57;35.76;101089.80;105430;1260;65415;-73
2023/05/08 01:46:33;;;;;;;6.00;2.00;;;;;;;12.56;35.71;101094.98;105064;1264;60518;-65
2023/05/08 01:49:11;;;;;;;4.30;2.30;;;;;;;12.54;35.62;101096.73;105322;1258;60414;-65
2023/05/08 01:51:44;;;;;;;6.90;2.40;;;;;;;12.53;35.69;101099.95;105376;1259;66805;-73
2023/05/08 01:54:15;;;;;;;4.90;2.20;;;;;;;12.54;35.79;101099.92;105128;1254;60879;-64
2023/05/08 01:56:43;;;;;;;4.60;2.60;;;;;;;12.54;35.93;101099.71;105565;1260;66361;-64
2023/05/08 01:59:13;;;;;;;5.60;2.20;;;;;;;12.55;35.89;101097.90;105456;1259;60447;-66
2023/05/08 02:01:41;;;;;;;7.40;2.20;;;;;;;12.53;35.89;101099.95;105872;1260;60360;-66
2023/05/08 02:04:08;;;;;;;4.50;2.50;;;;;;;12.51;35.89;101096.94;105593;1260;67584;-66
2023/05/08 02:06:36;;;;;;;6.40;2.40;;;;;;;12.52;36.05;101102.35;105353;1254;60438;-64
2023/05/08 02:09:03;;;;;;;4.70;2.40;;;;;;;12.52;36.15;101101.30;105263;1260;65521;-65
2023/05/08 02:11:30;;;;;;;4.30;2.10;;;;;;;12.49;35.97;101102.63;105370;1255;60628;-67
2023/05/08 02:13:57;;;;;;;5.70;2.40;;;;;;;12.46;36.18;101106.52;105348;1255;60664;-66
2023/05/08 02:16:24;;;;;;;6.50;2.60;;;;;;;12.45;36.16;101108.58;105249;1259;67393;-66
2023/05/08 02:18:53;;;;;;;5.60;2.40;;;;;;;12.42;36.21;101106.61;105452;1263;60419;-69
2023/05/08 02:21:20;;;;;;;5.60;2.20;;;;;;;12.41;36.24;101106.56;105314;1264;66305;-65
2023/05/08 02:23:46;;;;;;;4.60;2.60;;;;;;;12.40;36.20;101107.34;105535;1254;60461;-64
2023/05/08 02:26:14;;;;;;;4.10;2.10;;;;;;;12.38;36.21;101111.05;105453;1255;60454;-65
2023/05/08 02:28:41;;;;;;;5.20;2.30;;;;;;;12.36;36.40;101109.42;105494;1262;67420;-67
2023/05/08 02:31:09;;;;;;;3.40;2.20;;;;;;;12.35;36.47;101111.08;105638;1259;60848;-66
2023/05/08 02:33:37;;;;;;;4.70;2.30;;;;;;;12.32;36.47;101116.55;105520;1258;66316;-65
2023/05/08 02:36:04;;;;;;;4.40;2.20;;;;;;;12.30;36.51;101117.92;105290;1263;60313;-69
2023/05/08 02:38:32;;;;;;;4.50;2.30;;;;;;;12.30;36.56;101121.13;105761;1260;60348;-64
2023/05/08 02:41:00;;;;;;;3.80;2.40;;;;;;;12.30;36.89;101121.49;105395;1260;67671;-66
2023/05/08 02:43:27;;;;;;;4.10;2.40;;;;;;;12.29;36.89;101119.83;105626;1258;60968;-74
2023/05/08 02:45:57;;;;;;;4.80;2.30;;;;;;;12.28;36.76;101120.07;105618;1261;65688;-65
2023/05/08 02:48:35;;;;;;;7.00;2.60;;;;;;;12.27;36.85;101117.30;105443;1258;60575;-65
2023/05/08 02:51:15;;;;;;;3.20;2.40;;;;;;;12.25;36.82;101123.52;105523;1255;60360;-66
2023/05/08 02:53:46;;;;;;;4.40;2.30;;;;;;;12.23;36.88;101122.42;105464;1254;67790;-65
2023/05/08 02:56:35;;;;;;;4.90;2.30;;;;;;;12.20;36.81;101124.20;105283;1257;61280;-65
2023/05/08 02:59:20;;;;;;;6.20;2.50;;;;;;;12.21;36.93;101123.61;105733;1257;65512;-67
2023/05/08 03:02:21;;;;;;;7.00;2.80;;;;;;;12.22;37.15;101121.06;105305;1254;60615;-65
2023/05/08 03:04:54;;;;;;;4.90;1.90;;;;;;;12.22;37.22;101127.77;105470;1261;60444;-72
2023/05/08 03:07:23;;;;;;;3.70;2.50;;;;;;;12.23;37.29;101131.09;105271;1254;66731;-66
2023/05/08 03:09:54;;;;;;;5.80;2.40;;;;;;;12.23;37.36;101132.60;105142;1254;60888;-70
2023/05/08 03:12:23;;;;;;;7.90;2.40;;;;;;;12.24;37.27;101137.35;105703;1260;66637;-65
2023/05/08 03:14:59;;;;;;;3.20;2.10;;;;;;;12.25;37.30;101138.34;105437;1260;60313;-65
2023/05/08 03:17:27;;;;;;;5.20;2.30;;;;;;;12.28;37.25;101145.33;105223;1255;60832;-67
2023/05/08 03:19:56;;;;;;;4.00;2.40;;;;;;;12.30;36.99;101148.19;105781;1260;67656;-64
2023/05/08 03:22:24;;;;;;;3.40;2.10;;;;;;;12.30;36.99;101148.87;105475;1254;60963;-63
2023/05/08 03:24:51;;;;;;;4.10;2.30;;;;;;;12.31;37.01;101150.22;105248;1261;65405;-68
2023/05/08 03:27:19;;;;;;;4.20;2.00;;;;;;;12.33;36.93;101156.27;105084;1257;60530;-71
2023/05/08 03:29:46;;;;;;;5.80;2.50;;;;;;;12.35;36.93;101157.73;105531;1258;60537;-68
2023/05/08 03:32:13;;;;;;;6.20;2.50;;;;;;;12.38;36.95;101165.09;104918;1255;66624;-64
2023/05/08 03:34:40;;;;;;;6.10;2.30;;;;;;;12.41;36.88;101167.33;105360;1262;60472;-65
2023/05/08 03:37:08;;;;;;;5.60;2.40;;;;;;;12.44;36.71;101163.92;105434;1254;66244;-64
2023/05/08 03:39:34;;;;;;;5.10;2.50;;;;;;;12.46;36.75;101164.45;105388;1260;60782;-65
2023/05/08 03:42:02;;;;;;;3.50;2.20;;;;;;;12.49;36.80;101164.46;105471;1254;60491;-65
2023/05/08 03:44:29;;;;;;;7.10;2.40;;;;;;;12.51;36.87;101166.58;105546;1258;67364;-66
2023/05/08 03:46:57;;;;;;;4.60;2.40;;;;;;;12.54;37.02;101166.35;105522;1260;60307;-64
2023/05/08 03:49:25;;;;;;;3.50;2.40;;;;;;;12.54;37.00;101167.73;105556;1257;65503;-63
2023/05/08 03:51:53;;;;;;;4.50;2.10;;;;;;;12.54;36.99;101172.48;105413;1259;60479;-69
2023/05/08 03:54:24;;;;;;;4.80;2.30;;;;;;;12.54;36.94;101174.45;105503;1255;60454;-67
2023/05/08 03:56:52;;;;;;;4.30;2.00;;;;;;;12.56;36.96;101176.10;105442;1254;78482;-65
2023/05/08 04:00:02;;;;;;;5.60;2.40;;;;;;;12.59;36.75;101177.43;105501;1254;60550;-64
2023/05/08 04:02:53;;;;;;;4.30;2.00;;;;;;;12.62;36.69;101177.38;105319;1257;66739;-64
2023/05/08 04:05:47;;;;;;;4.60;2.10;;;;;;;12.66;36.65;101178.69;105443;1254;60527;-65
2023/05/08 04:08:29;;;;;;;3.20;2.10;;;;;;;12.71;36.52;101183.30;105280;1255;60373;-67
2023/05/08 04:11:20;;;;;;;5.80;2.10;;;;;;;12.75;36.38;101183.83;105438;1254;64260;-73
2023/05/08 04:13:49;;;;;;;5.30;2.40;;;;;;;12.79;36.08;101179.52;105433;1263;60441;-64
2023/05/08 04:16:20;;;;;;;3.70;2.30;;;;;;;12.82;36.12;101179.55;105245;1254;66459;-64
2023/05/08 04:18:48;;;;;;;10.80;2.40;;;;;;;12.90;35.86;101182.35;105096;1261;61169;-68
2023/05/08 04:21:21;;;;;;;3.20;1.80;;;;;;;12.95;35.42;101181.13;105371;1254;60382;-65
2023/05/08 04:23:49;;;;;;;3.30;2.10;;;;;;;12.99;35.22;101178.30;105772;1255;66606;-65
2023/05/08 04:26:17;;;;;;;5.70;2.30;;;;;;;13.02;35.27;101178.10;105969;1254;60779;-71
2023/05/08 04:28:45;;;;;;;5.00;2.10;;;;;;;13.07;35.37;101181.25;105761;1254;66581;-68
2023/05/08 04:31:14;;;;;;;3.00;1.90;;;;;;;13.12;35.02;101188.44;105610;1255;60575;-70
2023/05/08 04:33:45;;;;;;;4.40;2.00;;;;;;;13.18;35.01;101186.23;105404;1255;60453;-65
2023/05/08 04:36:13;;;;;;;4.40;1.80;;;;;;;13.24;34.93;101188.96;105392;1254;67610;-64
2023/05/08 04:38:41;;;;;;;3.90;2.20;;;;;;;13.32;35.02;101191.90;105496;1254;60709;-65
2023/05/08 04:41:08;;;;;;;6.60;2.20;;;;;;;13.41;34.89;101196.66;105734;1254;66573;-66
2023/05/08 04:43:36;;;;;;;3.40;2.10;;;;;;;13.49;34.84;101200.10;105593;1257;60440;-69
2023/05/08 04:46:04;;;;;;;4.30;1.70;;;;;;;13.56;34.68;101201.28;105643;1254;60556;-65
2023/05/08 04:48:32;;;;;;;4.30;2.00;;;;;;;13.61;34.47;101204.06;105411;1262;67385;-65
2023/05/08 04:51:00;;;;;;;3.20;2.10;;;;;;;13.65;34.28;101207.49;105496;1261;60683;-69
2023/05/08 04:53:27;;;;;;;7.40;2.30;;;;;;;13.67;34.30;101207.46;105451;1254;65573;-65
2023/05/08 04:55:54;;;;;;;4.00;1.90;;;;;;;13.69;34.42;101208.59;105508;1254;60488;-66
2023/05/08 04:58:21;;;;;;;2.60;1.70;;;;;;;13.71;34.24;101209.27;105474;1260;60447;-65
2023/05/08 05:00:48;;;;;;;3.10;2.00;;;;;;;13.72;33.88;101209.39;105326;1254;67908;-65
2023/05/08 05:03:16;;;;;;;2.10;1.70;;;;;;;13.70;33.68;101209.02;105693;1254;60444;-69
2023/05/08 05:05:44;;;;;;;2.60;1.50;;;;;;;13.69;33.72;101213.34;105822;1254;66271;-66
2023/05/08 05:08:11;;;;;;;2.80;1.60;;;;;;;13.65;33.70;101214.70;105480;1254;60370;-68
2023/05/08 05:10:39;;;;;;;3.60;2.10;;;;;;;13.60;33.50;101217.08;105714;1254;59659;-64
2023/05/08 05:13:06;;;;;;;3.30;2.00;;;;;;;13.59;33.66;101220.84;105389;1257;67646;-67
2023/05/08 05:15:34;;;;;;;5.50;1.90;;;;;;;13.59;33.87;101218.73;105511;1252;60624;-65
2023/05/08 05:18:01;;;;;;;4.00;2.00;;;;;;;13.58;33.79;101219.77;105440;1257;65463;-65
2023/05/08 05:20:31;;;;;;;2.70;2.00;;;;;;;13.56;34.09;101223.25;105547;1258;60482;-65
2023/05/08 05:22:58;;;;;;;3.40;2.00;;;;;;;13.58;34.38;101228.04;105427;1254;60870;-65
2023/05/08 05:25:24;;;;;;;4.80;2.30;;;;;;;13.61;34.34;101228.13;105282;1259;67838;-66
2023/05/08 05:27:52;;;;;;;3.00;2.10;;;;;;;13.67;34.16;101228.73;105348;1255;60175;-68
2023/05/08 05:30:19;;;;;;;3.80;2.10;;;;;;;13.73;34.27;101226.50;105361;1254;66564;-68
2023/05/08 05:32:46;;;;;;;4.20;1.80;;;;;;;13.84;34.41;101226.88;105424;1254;60444;-68
2023/05/08 05:35:14;;;;;;;5.90;2.10;;;;;;;13.98;34.21;101228.20;105813;1260;60393;-67
2023/05/08 05:37:41;;;;;;;4.40;2.20;;;;;;;14.15;34.02;101224.40;105386;1254;66749;-64
2023/05/08 05:40:12;;;;;;;4.90;2.10;;;;;;;14.28;34.11;101227.02;105603;1254;60956;-66
2023/05/08 05:42:40;;;;;;;3.30;1.80;;;;;;;14.41;33.71;101229.00;105449;1254;66286;-65
2023/05/08 05:45:07;;;;;;;5.00;2.00;;;;;;;14.52;33.24;101228.95;105426;1253;60418;-65
2023/05/08 05:47:34;;;;;;;4.20;2.00;;;;;;;14.64;33.31;101226.95;105359;1260;60316;-65
2023/05/08 05:50:03;;;;;;;4.10;2.20;;;;;;;14.73;33.25;101227.73;105563;1254;67446;-65
2023/05/08 05:52:32;;;;;;;3.20;1.90;;;;;;;14.79;33.07;101228.35;105513;1254;60774;-71
2023/05/08 05:54:59;;;;;;;3.50;1.80;;;;;;;14.78;32.74;101226.13;105334;1260;65660;-66
2023/05/08 05:57:26;;;;;;;2.50;1.80;;;;;;;14.74;32.79;101223.91;105529;1257;60463;-66
2023/05/08 05:59:53;;;;;;;4.50;2.00;;;;;;;14.72;32.79;101224.34;105411;1257;60354;-65
2023/05/08 06:02:21;;;;;;;4.90;1.80;;;;;;;14.67;32.51;101225.23;105820;1254;67653;-63
2023/05/08 06:04:50;;;;;;;6.60;2.10;;;;;;;14.66;32.49;101223.60;105401;1254;60495;-69
2023/05/08 06:07:19;;;;;;;5.00;1.90;;;;;;;14.69;32.73;101224.23;105368;1254;66266;-65
2023/05/08 06:09:46;;;;;;;4.50;1.90;;;;;;;14.72;32.53;101220.42;105443;1257;60555;-71
2023/05/08 06:12:13;;;;;;;3.70;1.60;;;;;;;14.76;32.37;101219.88;105474;1254;60479;-71
2023/05/08 06:14:40;;;;;;;5.80;1.80;;;;;;;14.81;32.25;101218.09;105283;1257;67530;-67
2023/05/08 06:17:07;;;;;;;6.30;1.70;;;;;;;14.90;32.07;101213.95;105325;1254;61016;-67
2023/05/08 06:19:35;;;;;;;3.10;1.50;;;;;;;14.92;32.06;101209.01;105570;1257;66735;-67
2023/05/08 06:22:02;;;;;;;4.00;2.00;;;;;;;14.95;32.22;101211.55;105386;1253;60642;-66
2023/05/08 06:24:29;;;;;;;6.50;1.70;;;;;;;15.03;32.11;101214.95;105666;1260;60809;-70
2023/05/08 06:26:56;;;;;;;5.60;1.40;;;;;;;15.11;31.98;101216.73;105373;1257;68234;-66
2023/05/08 06:29:23;;;;;;;4.30;1.70;;;;;;;15.19;31.57;101220.73;106456;1254;61979;-67
2023/05/08 06:31:50;;;;;;;4.90;1.80;;;;;;;15.23;31.44;101220.68;105297;1254;66622;-67
2023/05/08 06:34:17;;;;;;;3.10;1.70;;;;;;;15.27;31.43;101223.19;105404;1254;60629;-67
2023/05/08 06:36:44;;;;;;;3.90;1.70;;;;;;;15.33;31.44;101225.73;105472;1253;60421;-67
2023/05/08 06:39:11;;;;;;;4.10;1.90;;;;;;;15.35;30.58;101226.60;105604;1254;67652;-70
2023/05/08 06:41:38;;;;;;;3.90;1.70;;;;;;;15.36;30.77;101224.51;105310;1263;61265;-66
2023/05/08 06:44:05;;;;;;;10.10;1.90;;;;;;;15.43;30.93;101228.67;105606;1254;66797;-66
2023/05/08 06:46:32;;;;;;;6.30;1.70;;;;;;;15.56;31.01;101234.21;105401;1255;60426;-67
2023/05/08 06:48:59;;;;;;;4.30;1.90;;;;;;;15.67;30.97;101233.75;105506;1257;60343;-67
2023/05/08 06:51:26;;;;;;;3.30;1.60;;;;;;;15.77;30.72;101232.37;105368;1253;67959;-66
2023/05/08 06:53:53;;;;;;;5.50;1.40;;;;;;;15.85;30.32;101236.08;105486;1254;60495;-67
2023/05/08 06:56:21;;;;;;;2.70;2.00;;;;;;;15.90;30.35;101235.30;105319;1254;67005;-68
2023/05/08 06:58:48;;;;;;;5.10;1.90;;;;;;;15.92;30.27;101235.50;105482;1257;60489;-66
2023/05/08 07:01:30;;;;;;;10.00;2.10;;;;;;;15.92;29.92;101234.20;105681;1254;60428;-69
2023/05/08 07:03:57;;;;;;;3.70;1.60;;;;;;;15.92;30.00;101227.45;105451;1256;67753;-69
2023/05/08 07:06:24;;;;;;;4.80;1.90;;;;;;;16.00;30.50;101228.38;106085;1258;60825;-69
2023/05/08 07:08:51;;;;;;;2.80;1.70;;;;;;;16.12;30.32;101230.69;105301;1256;66480;-72
2023/05/08 07:11:18;;;;;;;6.80;1.80;;;;;;;16.20;30.04;101233.36;105434;1254;60466;-68
2023/05/08 07:13:47;;;;;;;12.20;2.00;;;;;;;16.25;30.03;101231.10;105531;1257;60511;-70
2023/05/08 07:16:15;;;;;;;3.30;1.80;;;;;;;16.31;30.07;101228.23;105391;1254;66730;-69
2023/05/08 07:18:42;;;;;;;2.80;1.70;;;;;;;16.41;29.87;101221.86;105776;1254;60616;-69
2023/05/08 07:21:09;;;;;;;4.50;1.80;;;;;;;16.51;29.66;101217.72;105944;1255;68064;-72
2023/05/08 07:23:36;;;;;;;5.20;1.80;;;;;;;16.66;29.39;101217.98;105480;1261;60648;-70
2023/05/08 07:26:03;;;;;;;3.70;1.80;;;;;;;16.74;28.98;101224.52;109434;1253;58320;-70
2023/05/08 07:28:30;;;;;;;5.20;1.50;;;;;;;16.79;28.50;101224.27;109333;1253;67244;-72
2023/05/08 07:30:57;;;;;;;2.80;1.70;;;;;;;16.80;28.50;101224.89;109268;1254;60500;-69
2023/05/08 07:33:24;;;;;;;8.20;1.70;;;;;;;16.84;28.84;101228.39;109315;1252;65143;-68
2023/05/08 07:35:51;;;;;;;26.70;2.60;;;;;;;16.94;28.91;101232.81;109478;1252;58218;-70
2023/05/08 07:38:18;;;;;;;6.60;1.80;;;;;;;17.04;28.85;101233.65;109342;1254;58280;-70
2023/05/08 07:40:45;;;;;;;5.80;1.30;;;;;;;17.10;28.22;101232.53;109422;1253;66932;-71
2023/05/08 07:43:13;;;;;;;9.10;2.10;;;;;;;17.14;27.83;101229.70;109436;1254;59350;-69
2023/05/08 07:45:40;;;;;;;3.00;1.30;;;;;;;17.13;27.36;101234.37;109254;1254;66390;-71
2023/05/08 07:48:07;;;;;;;2.20;1.40;;;;;;;17.09;27.26;101230.54;109418;1254;58104;-74
2023/05/08 07:50:35;;;;;;;4.50;1.50;;;;;;;17.09;27.72;101227.46;109441;1253;58210;-69
2023/05/08 07:53:02;;;;;;;4.40;1.50;;;;;;;17.15;27.56;101228.85;109344;1254;66300;-72
2023/05/08 07:55:29;;;;;;;26.40;3.20;;;;;;;17.22;27.40;101229.55;109401;1254;59540;-71
2023/05/08 07:57:55;;;;;;;6.10;1.70;;;;;;;17.24;27.21;101227.57;109349;1254;65945;-72
2023/05/08 08:00:22;;;;;;;6.70;1.60;;;;;;;17.25;27.45;101225.66;109338;1256;58126;-70
2023/05/08 08:02:49;;;;;;;36.60;3.40;;;;;;;17.30;27.58;101219.32;109398;1254;58093;-71
2023/05/08 08:05:16;;;;;;;31.40;2.60;;;;;;;17.38;27.76;101215.68;109424;1255;67066;-72
2023/05/08 08:07:43;;;;;;;3.40;1.30;;;;;;;17.47;28.02;101218.58;109392;1254;60470;-71
2023/05/08 08:10:11;;;;;;;4.00;1.40;;;;;;;17.59;28.25;101224.74;109197;1254;66143;-71
2023/05/08 08:12:38;;;;;;;4.70;1.60;;;;;;;17.65;27.23;101216.81;109422;1253;58203;-69
2023/05/08 08:15:05;;;;;;;4.10;1.30;;;;;;;17.67;27.09;101214.67;109362;1253;58232;-70
2023/05/08 08:17:32;;;;;;;3.00;1.40;;;;;;;17.68;27.11;101212.98;109432;1254;65906;-69
2023/05/08 08:19:59;;;;;;;2.60;1.30;;;;;;;17.69;27.60;101215.21;109360;1254;60594;-69
2023/05/08 08:22:26;;;;;;;2.80;1.50;;;;;;;17.76;27.83;101215.27;109342;1254;66150;-67
2023/05/08 08:24:56;;;;;;;4.40;1.60;;;;;;;17.87;27.49;101213.88;109427;1254;58164;-70
2023/05/08 08:27:23;;;;;;;9.60;1.60;;;;;;;17.95;27.01;101213.75;109229;1254;58237;-70
2023/05/08 08:29:50;;;;;;;3.70;1.20;;;;;;;18.01;26.80;101211.43;109338;1253;67263;-71
2023/05/08 08:32:30;;;;;;;4.10;1.50;;;;;;;18.10;26.72;101205.36;109445;1254;60619;-71
2023/05/08 08:34:57;;;;;;;69.50;5.70;;;;;;;18.20;26.28;101202.65;109404;1254;66164;-72
2023/05/08 08:37:25;;;;;;;4.00;1.40;;;;;;;18.21;26.28;101199.59;109383;1254;58181;-70
2023/05/08 08:39:52;;;;;;;4.60;1.50;;;;;;;18.20;26.00;101199.01;109375;1256;58067;-71
2023/05/08 08:42:19;;;;;;;6.00;1.40;;;;;;;18.19;25.92;101198.61;109391;1256;67473;-71
2023/05/08 08:44:46;;;;;;;4.20;1.60;;;;;;;18.23;26.04;101199.59;109322;1255;59368;-72
2023/05/08 08:47:13;;;;;;;5.90;1.70;;;;;;;18.29;25.51;101192.09;109151;1254;65103;-70
2023/05/08 08:49:42;;;;;;;8.80;1.60;;;;;;;18.34;25.78;101193.20;109246;1254;58057;-70
2023/05/08 08:52:25;;;;;;;6.40;1.90;;;;;;;18.37;25.38;101197.55;109190;1255;58241;-69
2023/05/08 08:54:52;;;;;;;4.60;1.60;;;;;;;18.37;25.39;101197.75;109276;1256;66064;-70
2023/05/08 08:57:19;;;;;;;7.30;1.70;;;;;;;18.42;25.16;101195.09;109219;1255;59309;-70
2023/05/08 08:59:46;;;;;;;4.30;1.50;;;;;;;18.48;25.41;101196.83;109154;1257;66139;-71
2023/05/08 09:02:16;;;;;;;3.90;1.30;;;;;;;18.65;25.93;101193.52;109150;1254;58117;-69
2023/05/08 09:04:44;;;;;;;5.30;1.60;;;;;;;18.85;25.91;101193.48;109173;1255;58270;-69
2023/05/08 09:07:11;;;;;;;4.70;1.60;;;;;;;19.00;25.37;101195.11;109203;1255;67452;-69
2023/05/08 09:09:39;;;;;;;3.30;1.50;;;;;;;19.07;24.55;101192.81;109395;1256;59450;-70
2023/05/08 09:12:07;;;;;;;1.80;1.30;;;;;;;19.09;24.21;101190.84;109156;1256;66141;-70
2023/05/08 09:14:33;;;;;;;3.40;1.60;;;;;;;19.09;24.35;101193.69;109112;1256;58166;-70
2023/05/08 09:17:01;;;;;;;5.30;1.50;;;;;;;19.09;24.40;101194.35;109140;1255;58477;-72
2023/05/08 09:19:28;;;;;;;7.30;1.80;;;;;;;19.16;24.42;101194.54;109359;1256;65997;-70
2023/05/08 09:21:58;;;;;;;4.90;1.70;;;;;;;19.26;24.67;101196.02;109171;1254;60490;-69
2023/05/08 09:24:26;;;;;;;4.80;1.70;;;;;;;19.40;24.45;101193.14;109155;1255;66311;-69
2023/05/08 09:26:56;;;;;;;2.90;1.50;;;;;;;19.54;24.34;101192.90;109140;1255;58186;-69
2023/05/08 09:29:23;;;;;;;4.60;1.40;;;;;;;19.65;23.76;101192.52;109373;1255;58231;-69
2023/05/08 09:31:51;;;;;;;15.30;2.10;;;;;;;19.66;23.88;101194.74;109284;1256;75246;-68
2023/05/08 09:34:26;;;;;;;4.40;1.50;;;;;;;19.69;23.98;101191.41;109209;1256;60197;-69
2023/05/08 09:36:54;;;;;;;3.40;1.40;;;;;;;19.75;24.80;101190.59;108987;1256;240792;-69
2023/05/08 09:39:23;;;;;;;3.90;1.80;;;;;;;19.85;23.84;101190.59;109192;1256;58211;-69
2023/05/08 09:41:57;;;;;;;5.30;1.70;;;;;;;19.84;22.74;101184.02;109325;1255;58038;-70
2023/05/08 09:44:24;;;;;;;3.00;1.30;;;;;;;19.75;22.49;101186.80;109341;1257;67408;-69
2023/05/08 09:46:52;;;;;;;2.10;1.40;;;;;;;19.70;23.06;101187.04;109199;1255;58358;-70
2023/05/08 09:49:19;;;;;;;4.20;1.30;;;;;;;19.75;24.13;101190.06;109123;1255;65496;-70
2023/05/08 09:51:52;;;;;;;4.90;1.30;;;;;;;19.91;24.60;101190.52;109123;1255;58125;-69
2023/05/08 09:54:19;;;;;;;5.90;1.50;;;;;;;20.07;24.05;101193.56;109197;1255;58153;-69
2023/05/08 09:56:46;;;;;;;3.70;1.50;;;;;;;20.14;23.71;101191.45;109166;1255;66106;-68
2023/05/08 09:59:27;;;;;;;5.30;1.40;;;;;;;20.19;23.43;101186.74;109271;1255;60035;-70
2023/05/08 10:01:54;;;;;;;3.80;1.30;;;;;;;20.28;23.73;101179.55;109297;1256;65984;-69
2023/05/08 10:09:11;;;;;;;4.60;1.50;;;;;;;20.60;23.04;101173.52;109163;1256;58110;-68
2023/05/08 10:11:50;;;;;;;3.30;1.50;;;;;;;20.57;22.74;101172.98;109199;1256;66080;-70
2023/05/08 10:14:18;;;;;;;7.00;1.30;;;;;;;20.62;22.43;101168.54;109172;1256;59425;-71
2023/05/08 10:16:48;;;;;;;5.20;1.30;;;;;;;20.72;22.63;101162.57;109218;1255;64782;-70
2023/05/08 10:19:16;;;;;;;4.60;1.30;;;;;;;20.80;22.23;101167.95;109285;1255;58071;-69
2023/05/08 10:21:48;;;;;;;2.90;1.30;;;;;;;20.89;22.59;101169.88;109025;1255;58291;-69
2023/05/08 10:24:16;;;;;;;5.40;1.30;;;;;;;21.08;22.60;101170.58;109172;1256;66878;-70
2023/05/08 10:27:16;;;;;;;3.50;1.30;;;;;;;21.28;22.74;101173.38;109010;1256;60469;-69
2023/05/08 10:29:51;;;;;;;2.50;1.50;;;;;;;21.48;22.02;101178.81;109046;1257;66024;-70
2023/05/08 10:32:22;;;;;;;3.30;1.30;;;;;;;21.51;21.95;101176.71;109095;1256;58211;-71
2023/05/08 10:34:51;;;;;;;2.80;1.10;;;;;;;21.47;22.19;101173.77;109198;1256;58257;-70
2023/05/08 10:37:18;;;;;;;2.10;1.20;;;;;;;21.40;22.08;101170.83;109070;1255;67307;-71
2023/05/08 10:39:45;;;;;;;3.80;1.50;;;;;;;21.24;21.91;101174.36;109089;1256;60511;-71
2023/05/08 10:42:13;;;;;;;4.20;1.20;;;;;;;21.02;22.22;101171.64;108997;1256;64876;-70
2023/05/08 10:44:40;;;;;;;7.00;1.30;;;;;;;20.91;22.86;101172.45;108994;1260;58279;-71
2023/05/08 10:47:13;;;;;;;4.90;1.60;;;;;;;20.94;22.74;101166.30;109050;1256;58137;-69
2023/05/08 10:49:48;;;;;;;2.80;1.40;;;;;;;20.97;22.44;101167.31;109140;1256;67254;-70
2023/05/08 10:52:19;;;;;;;4.00;1.30;;;;;;;21.04;22.69;101165.09;109087;1256;60532;-70
2023/05/08 10:54:52;;;;;;;2.50;1.50;;;;;;;21.25;23.47;101167.63;109062;1256;64950;-70
2023/05/08 10:57:19;;;;;;;2.30;1.10;;;;;;;21.54;22.55;101165.10;109120;1256;58201;-69
2023/05/08 10:59:46;;;;;;;3.50;1.30;;;;;;;21.79;22.20;101159.70;109167;1256;58074;-70
2023/05/08 11:02:14;;;;;;;2.60;1.30;;;;;;;22.02;21.93;101152.04;109056;1256;67486;-71
2023/05/08 11:04:42;;;;;;;4.80;1.30;;;;;;;22.21;21.95;101153.21;109144;1256;60332;-70
2023/05/08 11:07:10;;;;;;;4.70;1.10;;;;;;;22.43;22.00;101155.27;109121;1256;65110;-70
2023/05/08 11:09:40;;;;;;;4.10;1.20;;;;;;;22.63;21.51;101157.13;109134;1257;58112;-71
2023/05/08 11:12:26;;;;;;;4.40;1.40;;;;;;;22.75;21.30;101153.99;109063;1256;58260;-70
2023/05/08 11:15:01;;;;;;;5.70;1.40;;;;;;;22.84;20.85;101156.14;109155;1256;67234;-70
2023/05/08 11:17:28;;;;;;;3.00;1.20;;;;;;;22.75;20.91;101151.91;109001;1256;59385;-71
2023/05/08 11:19:57;;;;;;;3.90;1.20;;;;;;;22.68;20.98;101147.83;109151;1256;66419;-70
2023/05/08 11:22:27;;;;;;;2.60;1.40;;;;;;;22.78;20.80;101145.21;109075;1256;58183;-72
2023/05/08 11:24:58;;;;;;;7.20;1.50;;;;;;;22.99;21.30;101141.66;109084;1256;58214;-70
2023/05/08 11:27:31;;;;;;;4.20;1.40;;;;;;;23.27;21.64;101138.27;109002;1256;66166;-70
2023/05/08 11:30:21;;;;;;;;;;;;;;;23.55;21.39;101137.32;109086;1256;59479;-71
2023/05/08 11:32:55;;;;;;;4.10;1.40;;;;;;;23.72;20.37;101138.71;109134;1256;64844;-71
2023/05/08 11:35:47;;;;;;;5.10;1.40;;;;;;;23.76;20.31;101135.27;109015;1256;58145;-69